sensor_id;sensor_type;location;lat;lon;timestamp;P1;durP1;ratioP1;P2;durP2;ratioP2
58784;SDS011;44557;51.862;19.378;2023-06-14T00:01:33;6.90;;;3.80;;
58784;SDS011;44557;51.862;19.378;2023-06-14T00:03:36;5.00;;;3.10;;
58784;SDS011;44557;51.862;19.378;2023-06-14T00:05:40;7.10;;;3.20;;
58784;SDS011;44557;51.862;19.378;2023-06-14T00:07:44;5.90;;;3.20;;
58784;SDS011;44557;51.862;19.378;2023-06-14T00:09:46;6.00;;;3.10;;
58784;SDS011;44557;51.862;19.378;2023-06-14T00:11:48;4.70;;;2.90;;
58784;SDS011;44557;51.862;19.378;2023-06-14T00:13:50;5.20;;;3.30;;
58784;SDS011;44557;51.862;19.378;2023-06-14T00:15:52;4.70;;;2.70;;
58784;SDS011;44557;51.862;19.378;2023-06-14T00:17:57;6.10;;;2.80;;
58784;SDS011;44557;51.862;19.378;2023-06-14T00:20:03;5.60;;;3.10;;
58784;SDS011;44557;51.862;19.378;2023-06-14T00:22:09;5.10;;;2.90;;
58784;SDS011;44557;51.862;19.378;2023-06-14T00:24:11;6.70;;;3.10;;
58784;SDS011;44557;51.862;19.378;2023-06-14T00:26:14;6.20;;;3.20;;
58784;SDS011;44557;51.862;19.378;2023-06-14T00:28:16;4.00;;;2.90;;
58784;SDS011;44557;51.862;19.378;2023-06-14T00:30:18;5.00;;;2.70;;
58784;SDS011;44557;51.862;19.378;2023-06-14T00:32:21;6.70;;;3.10;;
58784;SDS011;44557;51.862;19.378;2023-06-14T00:34:27;6.20;;;2.80;;
58784;SDS011;44557;51.862;19.378;2023-06-14T00:36:29;6.40;;;3.10;;
58784;SDS011;44557;51.862;19.378;2023-06-14T00:38:31;5.20;;;2.80;;
58784;SDS011;44557;51.862;19.378;2023-06-14T00:40:33;4.80;;;3.20;;
58784;SDS011;44557;51.862;19.378;2023-06-14T00:42:36;6.40;;;3.40;;
58784;SDS011;44557;51.862;19.378;2023-06-14T00:44:38;6.60;;;3.60;;
58784;SDS011;44557;51.862;19.378;2023-06-14T00:46:40;8.70;;;3.20;;
58784;SDS011;44557;51.862;19.378;2023-06-14T00:48:42;7.40;;;3.40;;
58784;SDS011;44557;51.862;19.378;2023-06-14T00:50:44;5.30;;;3.60;;
58784;SDS011;44557;51.862;19.378;2023-06-14T00:52:47;6.90;;;3.40;;
58784;SDS011;44557;51.862;19.378;2023-06-14T00:54:49;6.50;;;3.80;;
58784;SDS011;44557;51.862;19.378;2023-06-14T00:56:51;6.10;;;3.90;;
58784;SDS011;44557;51.862;19.378;2023-06-14T00:58:54;6.20;;;3.60;;
58784;SDS011;44557;51.862;19.378;2023-06-14T01:00:57;6.60;;;4.10;;
58784;SDS011;44557;51.862;19.378;2023-06-14T01:02:59;5.40;;;3.70;;
58784;SDS011;44557;51.862;19.378;2023-06-14T01:05:02;7.80;;;3.80;;
58784;SDS011;44557;51.862;19.378;2023-06-14T01:07:11;7.20;;;3.60;;
58784;SDS011;44557;51.862;19.378;2023-06-14T01:09:27;6.70;;;4.30;;
58784;SDS011;44557;51.862;19.378;2023-06-14T01:11:33;6.10;;;3.60;;
58784;SDS011;44557;51.862;19.378;2023-06-14T01:13:45;6.60;;;3.60;;
58784;SDS011;44557;51.862;19.378;2023-06-14T01:15:47;6.10;;;3.80;;
58784;SDS011;44557;51.862;19.378;2023-06-14T01:17:52;6.50;;;3.80;;
58784;SDS011;44557;51.862;19.378;2023-06-14T01:19:55;6.70;;;3.70;;
58784;SDS011;44557;51.862;19.378;2023-06-14T01:22:00;8.70;;;3.90;;
58784;SDS011;44557;51.862;19.378;2023-06-14T01:24:04;6.00;;;4.00;;
58784;SDS011;44557;51.862;19.378;2023-06-14T01:26:06;6.40;;;4.00;;
58784;SDS011;44557;51.862;19.378;2023-06-14T01:28:08;5.70;;;4.00;;
58784;SDS011;44557;51.862;19.378;2023-06-14T01:30:15;8.30;;;4.40;;
58784;SDS011;44557;51.862;19.378;2023-06-14T01:32:18;7.80;;;4.60;;
58784;SDS011;44557;51.862;19.378;2023-06-14T01:34:20;6.30;;;4.40;;
58784;SDS011;44557;51.862;19.378;2023-06-14T01:36:22;7.70;;;4.70;;
58784;SDS011;44557;51.862;19.378;2023-06-14T01:38:29;6.80;;;4.60;;
58784;SDS011;44557;51.862;19.378;2023-06-14T01:40:33;8.50;;;4.90;;
58784;SDS011;44557;51.862;19.378;2023-06-14T01:42:37;7.70;;;4.90;;
58784;SDS011;44557;51.862;19.378;2023-06-14T01:44:41;6.50;;;4.80;;
58784;SDS011;44557;51.862;19.378;2023-06-14T01:46:44;7.20;;;4.70;;
58784;SDS011;44557;51.862;19.378;2023-06-14T01:48:47;10.00;;;4.90;;
58784;SDS011;44557;51.862;19.378;2023-06-14T01:50:49;8.60;;;5.20;;
58784;SDS011;44557;51.862;19.378;2023-06-14T01:52:51;7.20;;;5.50;;
58784;SDS011;44557;51.862;19.378;2023-06-14T01:54:54;9.20;;;5.40;;
58784;SDS011;44557;51.862;19.378;2023-06-14T01:56:56;8.40;;;5.40;;
58784;SDS011;44557;51.862;19.378;2023-06-14T01:58:58;7.10;;;5.00;;
58784;SDS011;44557;51.862;19.378;2023-06-14T02:01:00;9.00;;;5.80;;
58784;SDS011;44557;51.862;19.378;2023-06-14T02:03:02;8.50;;;5.80;;
58784;SDS011;44557;51.862;19.378;2023-06-14T02:05:06;7.70;;;5.40;;
58784;SDS011;44557;51.862;19.378;2023-06-14T02:07:08;9.50;;;6.00;;
58784;SDS011;44557;51.862;19.378;2023-06-14T02:09:10;9.40;;;6.00;;
58784;SDS011;44557;51.862;19.378;2023-06-14T02:11:12;9.90;;;6.30;;
58784;SDS011;44557;51.862;19.378;2023-06-14T02:13:14;10.10;;;5.80;;
58784;SDS011;44557;51.862;19.378;2023-06-14T02:15:16;9.10;;;6.20;;
58784;SDS011;44557;51.862;19.378;2023-06-14T02:17:19;8.60;;;6.10;;
58784;SDS011;44557;51.862;19.378;2023-06-14T02:19:21;10.30;;;6.50;;
58784;SDS011;44557;51.862;19.378;2023-06-14T02:21:23;10.00;;;6.70;;
58784;SDS011;44557;51.862;19.378;2023-06-14T02:23:25;9.30;;;6.20;;
58784;SDS011;44557;51.862;19.378;2023-06-14T02:25:28;8.40;;;5.70;;
58784;SDS011;44557;51.862;19.378;2023-06-14T02:27:30;8.40;;;5.90;;
58784;SDS011;44557;51.862;19.378;2023-06-14T02:29:32;7.60;;;6.00;;
58784;SDS011;44557;51.862;19.378;2023-06-14T02:31:34;12.70;;;6.50;;
58784;SDS011;44557;51.862;19.378;2023-06-14T02:33:37;7.90;;;6.70;;
58784;SDS011;44557;51.862;19.378;2023-06-14T02:35:40;10.70;;;6.50;;
58784;SDS011;44557;51.862;19.378;2023-06-14T02:37:41;10.50;;;6.20;;
58784;SDS011;44557;51.862;19.378;2023-06-14T02:39:44;8.00;;;5.90;;
58784;SDS011;44557;51.862;19.378;2023-06-14T02:41:46;8.10;;;6.00;;
58784;SDS011;44557;51.862;19.378;2023-06-14T02:43:48;10.10;;;6.20;;
58784;SDS011;44557;51.862;19.378;2023-06-14T02:45:49;10.00;;;6.20;;
58784;SDS011;44557;51.862;19.378;2023-06-14T02:47:51;9.20;;;6.30;;
58784;SDS011;44557;51.862;19.378;2023-06-14T02:49:53;9.00;;;6.50;;
58784;SDS011;44557;51.862;19.378;2023-06-14T02:51:55;8.70;;;6.10;;
58784;SDS011;44557;51.862;19.378;2023-06-14T02:53:58;11.30;;;6.50;;
58784;SDS011;44557;51.862;19.378;2023-06-14T02:55:59;8.90;;;7.20;;
58784;SDS011;44557;51.862;19.378;2023-06-14T02:58:02;10.40;;;7.00;;
58784;SDS011;44557;51.862;19.378;2023-06-14T03:00:05;9.70;;;7.20;;
58784;SDS011;44557;51.862;19.378;2023-06-14T03:02:12;10.30;;;7.60;;
58784;SDS011;44557;51.862;19.378;2023-06-14T03:04:14;10.10;;;6.70;;
58784;SDS011;44557;51.862;19.378;2023-06-14T03:06:17;9.70;;;6.70;;
58784;SDS011;44557;51.862;19.378;2023-06-14T03:08:19;9.70;;;7.10;;
58784;SDS011;44557;51.862;19.378;2023-06-14T03:10:21;11.40;;;7.10;;
58784;SDS011;44557;51.862;19.378;2023-06-14T03:12:23;10.00;;;6.70;;
58784;SDS011;44557;51.862;19.378;2023-06-14T03:14:26;9.30;;;6.70;;
58784;SDS011;44557;51.862;19.378;2023-06-14T03:16:31;8.50;;;6.60;;
58784;SDS011;44557;51.862;19.378;2023-06-14T03:18:33;10.40;;;6.70;;
58784;SDS011;44557;51.862;19.378;2023-06-14T03:20:37;8.40;;;6.70;;
58784;SDS011;44557;51.862;19.378;2023-06-14T03:22:40;10.30;;;6.90;;
58784;SDS011;44557;51.862;19.378;2023-06-14T03:24:43;10.60;;;7.20;;
58784;SDS011;44557;51.862;19.378;2023-06-14T03:26:47;9.70;;;6.70;;
58784;SDS011;44557;51.862;19.378;2023-06-14T03:28:48;9.30;;;6.60;;
58784;SDS011;44557;51.862;19.378;2023-06-14T03:30:52;10.80;;;6.50;;
58784;SDS011;44557;51.862;19.378;2023-06-14T03:32:54;10.50;;;6.10;;
58784;SDS011;44557;51.862;19.378;2023-06-14T03:34:57;9.30;;;6.50;;
58784;SDS011;44557;51.862;19.378;2023-06-14T03:37:00;9.20;;;5.90;;
58784;SDS011;44557;51.862;19.378;2023-06-14T03:39:02;8.90;;;5.70;;
58784;SDS011;44557;51.862;19.378;2023-06-14T03:41:04;10.60;;;6.40;;
58784;SDS011;44557;51.862;19.378;2023-06-14T03:43:06;9.20;;;6.00;;
58784;SDS011;44557;51.862;19.378;2023-06-14T03:45:09;11.00;;;5.80;;
58784;SDS011;44557;51.862;19.378;2023-06-14T03:47:11;9.30;;;5.80;;
58784;SDS011;44557;51.862;19.378;2023-06-14T03:49:14;7.00;;;5.30;;
58784;SDS011;44557;51.862;19.378;2023-06-14T03:51:19;8.00;;;5.10;;
58784;SDS011;44557;51.862;19.378;2023-06-14T03:53:21;10.70;;;6.10;;
58784;SDS011;44557;51.862;19.378;2023-06-14T03:55:25;8.70;;;6.10;;
58784;SDS011;44557;51.862;19.378;2023-06-14T03:57:27;8.50;;;5.50;;
58784;SDS011;44557;51.862;19.378;2023-06-14T03:59:29;10.20;;;5.40;;
58784;SDS011;44557;51.862;19.378;2023-06-14T04:01:31;7.30;;;5.60;;
58784;SDS011;44557;51.862;19.378;2023-06-14T04:03:35;10.70;;;5.70;;
58784;SDS011;44557;51.862;19.378;2023-06-14T04:05:37;9.90;;;5.10;;
58784;SDS011;44557;51.862;19.378;2023-06-14T04:07:38;8.20;;;5.40;;
58784;SDS011;44557;51.862;19.378;2023-06-14T04:09:46;7.50;;;5.80;;
58784;SDS011;44557;51.862;19.378;2023-06-14T04:11:49;9.50;;;6.10;;
58784;SDS011;44557;51.862;19.378;2023-06-14T04:13:53;10.40;;;6.10;;
58784;SDS011;44557;51.862;19.378;2023-06-14T04:15:58;9.10;;;5.40;;
58784;SDS011;44557;51.862;19.378;2023-06-14T04:17:59;8.70;;;5.80;;
58784;SDS011;44557;51.862;19.378;2023-06-14T04:20:02;9.20;;;5.90;;
58784;SDS011;44557;51.862;19.378;2023-06-14T04:22:07;9.30;;;5.80;;
58784;SDS011;44557;51.862;19.378;2023-06-14T04:24:09;9.10;;;5.70;;
58784;SDS011;44557;51.862;19.378;2023-06-14T04:26:14;10.30;;;6.50;;
58784;SDS011;44557;51.862;19.378;2023-06-14T04:28:18;9.20;;;6.60;;
58784;SDS011;44557;51.862;19.378;2023-06-14T04:30:21;7.10;;;5.50;;
58784;SDS011;44557;51.862;19.378;2023-06-14T04:32:28;10.00;;;6.50;;
58784;SDS011;44557;51.862;19.378;2023-06-14T04:34:40;8.30;;;5.90;;
58784;SDS011;44557;51.862;19.378;2023-06-14T04:36:42;10.60;;;6.20;;
58784;SDS011;44557;51.862;19.378;2023-06-14T04:38:51;9.40;;;6.90;;
58784;SDS011;44557;51.862;19.378;2023-06-14T04:40:56;10.90;;;6.50;;
58784;SDS011;44557;51.862;19.378;2023-06-14T04:42:58;8.50;;;6.30;;
58784;SDS011;44557;51.862;19.378;2023-06-14T04:45:01;10.00;;;6.80;;
58784;SDS011;44557;51.862;19.378;2023-06-14T04:47:03;9.70;;;6.60;;
58784;SDS011;44557;51.862;19.378;2023-06-14T04:49:05;10.30;;;6.50;;
58784;SDS011;44557;51.862;19.378;2023-06-14T04:51:07;9.30;;;6.60;;
58784;SDS011;44557;51.862;19.378;2023-06-14T04:53:10;10.20;;;7.30;;
58784;SDS011;44557;51.862;19.378;2023-06-14T04:55:12;10.20;;;7.40;;
58784;SDS011;44557;51.862;19.378;2023-06-14T04:57:14;11.70;;;6.40;;
58784;SDS011;44557;51.862;19.378;2023-06-14T04:59:18;10.70;;;6.90;;
58784;SDS011;44557;51.862;19.378;2023-06-14T05:01:21;10.40;;;7.00;;
58784;SDS011;44557;51.862;19.378;2023-06-14T05:03:24;9.50;;;7.00;;
58784;SDS011;44557;51.862;19.378;2023-06-14T05:05:28;10.00;;;7.20;;
58784;SDS011;44557;51.862;19.378;2023-06-14T05:07:30;9.90;;;6.80;;
58784;SDS011;44557;51.862;19.378;2023-06-14T05:09:32;11.20;;;6.80;;
58784;SDS011;44557;51.862;19.378;2023-06-14T05:11:35;11.50;;;6.20;;
58784;SDS011;44557;51.862;19.378;2023-06-14T05:13:37;10.80;;;6.90;;
58784;SDS011;44557;51.862;19.378;2023-06-14T05:15:39;11.10;;;7.10;;
58784;SDS011;44557;51.862;19.378;2023-06-14T05:17:41;11.70;;;7.20;;
58784;SDS011;44557;51.862;19.378;2023-06-14T05:19:43;11.30;;;6.60;;
58784;SDS011;44557;51.862;19.378;2023-06-14T05:21:46;11.30;;;7.40;;
58784;SDS011;44557;51.862;19.378;2023-06-14T05:23:49;9.90;;;7.20;;
58784;SDS011;44557;51.862;19.378;2023-06-14T05:25:53;10.40;;;7.00;;
58784;SDS011;44557;51.862;19.378;2023-06-14T05:27:54;10.40;;;6.90;;
58784;SDS011;44557;51.862;19.378;2023-06-14T05:29:56;11.10;;;7.10;;
58784;SDS011;44557;51.862;19.378;2023-06-14T05:32:01;9.80;;;6.90;;
58784;SDS011;44557;51.862;19.378;2023-06-14T05:34:04;12.50;;;6.70;;
58784;SDS011;44557;51.862;19.378;2023-06-14T05:36:06;10.00;;;7.30;;
58784;SDS011;44557;51.862;19.378;2023-06-14T05:38:09;8.90;;;6.80;;
58784;SDS011;44557;51.862;19.378;2023-06-14T05:40:11;8.90;;;7.30;;
58784;SDS011;44557;51.862;19.378;2023-06-14T05:42:14;11.10;;;6.90;;
58784;SDS011;44557;51.862;19.378;2023-06-14T05:44:16;10.60;;;7.10;;
58784;SDS011;44557;51.862;19.378;2023-06-14T05:46:19;10.70;;;6.30;;
58784;SDS011;44557;51.862;19.378;2023-06-14T05:48:23;10.20;;;7.00;;
58784;SDS011;44557;51.862;19.378;2023-06-14T05:50:25;10.90;;;6.20;;
58784;SDS011;44557;51.862;19.378;2023-06-14T05:52:27;11.60;;;6.90;;
58784;SDS011;44557;51.862;19.378;2023-06-14T05:54:32;12.40;;;7.00;;
58784;SDS011;44557;51.862;19.378;2023-06-14T05:56:35;10.50;;;6.40;;
58784;SDS011;44557;51.862;19.378;2023-06-14T05:58:37;11.00;;;7.10;;
58784;SDS011;44557;51.862;19.378;2023-06-14T06:00:39;9.50;;;6.20;;
58784;SDS011;44557;51.862;19.378;2023-06-14T06:02:42;10.10;;;6.70;;
58784;SDS011;44557;51.862;19.378;2023-06-14T06:04:45;9.10;;;6.20;;
58784;SDS011;44557;51.862;19.378;2023-06-14T06:06:47;9.80;;;6.50;;
58784;SDS011;44557;51.862;19.378;2023-06-14T06:08:49;13.80;;;6.80;;
58784;SDS011;44557;51.862;19.378;2023-06-14T06:10:51;10.00;;;6.10;;
58784;SDS011;44557;51.862;19.378;2023-06-14T06:12:53;10.30;;;6.20;;
58784;SDS011;44557;51.862;19.378;2023-06-14T06:14:56;11.00;;;6.80;;
58784;SDS011;44557;51.862;19.378;2023-06-14T06:16:58;9.20;;;6.30;;
58784;SDS011;44557;51.862;19.378;2023-06-14T06:19:00;10.30;;;6.60;;
58784;SDS011;44557;51.862;19.378;2023-06-14T06:21:03;8.90;;;6.00;;
58784;SDS011;44557;51.862;19.378;2023-06-14T06:23:06;11.20;;;5.70;;
58784;SDS011;44557;51.862;19.378;2023-06-14T06:25:10;10.00;;;6.40;;
58784;SDS011;44557;51.862;19.378;2023-06-14T06:27:12;10.30;;;6.50;;
58784;SDS011;44557;51.862;19.378;2023-06-14T06:29:15;13.30;;;6.30;;
58784;SDS011;44557;51.862;19.378;2023-06-14T06:31:17;10.20;;;5.70;;
58784;SDS011;44557;51.862;19.378;2023-06-14T06:33:19;10.50;;;6.60;;
58784;SDS011;44557;51.862;19.378;2023-06-14T06:35:21;8.70;;;5.90;;
58784;SDS011;44557;51.862;19.378;2023-06-14T06:37:26;9.50;;;6.20;;
58784;SDS011;44557;51.862;19.378;2023-06-14T06:39:27;9.00;;;6.20;;
58784;SDS011;44557;51.862;19.378;2023-06-14T06:41:30;9.80;;;6.70;;
58784;SDS011;44557;51.862;19.378;2023-06-14T06:43:32;10.30;;;6.50;;
58784;SDS011;44557;51.862;19.378;2023-06-14T06:45:34;11.00;;;6.60;;
58784;SDS011;44557;51.862;19.378;2023-06-14T06:47:36;9.20;;;6.40;;
58784;SDS011;44557;51.862;19.378;2023-06-14T06:49:38;9.50;;;6.40;;
58784;SDS011;44557;51.862;19.378;2023-06-14T06:51:41;9.80;;;5.90;;
58784;SDS011;44557;51.862;19.378;2023-06-14T06:53:51;9.70;;;5.80;;
58784;SDS011;44557;51.862;19.378;2023-06-14T06:55:54;9.60;;;6.30;;
58784;SDS011;44557;51.862;19.378;2023-06-14T06:57:57;11.10;;;6.00;;
58784;SDS011;44557;51.862;19.378;2023-06-14T07:00:00;10.10;;;6.20;;
58784;SDS011;44557;51.862;19.378;2023-06-14T07:02:02;11.40;;;6.10;;
58784;SDS011;44557;51.862;19.378;2023-06-14T07:04:05;12.80;;;6.40;;
58784;SDS011;44557;51.862;19.378;2023-06-14T07:06:07;10.90;;;6.70;;
58784;SDS011;44557;51.862;19.378;2023-06-14T07:08:09;9.90;;;5.80;;
58784;SDS011;44557;51.862;19.378;2023-06-14T07:10:11;12.20;;;6.20;;
58784;SDS011;44557;51.862;19.378;2023-06-14T07:12:13;8.70;;;5.90;;
58784;SDS011;44557;51.862;19.378;2023-06-14T07:14:16;10.70;;;5.80;;
58784;SDS011;44557;51.862;19.378;2023-06-14T07:16:18;12.70;;;5.70;;
58784;SDS011;44557;51.862;19.378;2023-06-14T07:18:20;8.90;;;5.30;;
58784;SDS011;44557;51.862;19.378;2023-06-14T07:20:23;9.50;;;5.40;;
58784;SDS011;44557;51.862;19.378;2023-06-14T07:22:26;10.50;;;5.20;;
58784;SDS011;44557;51.862;19.378;2023-06-14T07:24:28;8.80;;;5.40;;
58784;SDS011;44557;51.862;19.378;2023-06-14T07:26:30;9.30;;;5.30;;
58784;SDS011;44557;51.862;19.378;2023-06-14T07:28:32;10.00;;;5.20;;
58784;SDS011;44557;51.862;19.378;2023-06-14T07:30:35;17.00;;;6.80;;
58784;SDS011;44557;51.862;19.378;2023-06-14T07:32:37;10.40;;;5.60;;
58784;SDS011;44557;51.862;19.378;2023-06-14T07:34:39;11.30;;;5.00;;
58784;SDS011;44557;51.862;19.378;2023-06-14T07:36:42;7.80;;;5.40;;
58784;SDS011;44557;51.862;19.378;2023-06-14T07:38:46;9.20;;;5.10;;
58784;SDS011;44557;51.862;19.378;2023-06-14T07:40:48;8.70;;;5.00;;
58784;SDS011;44557;51.862;19.378;2023-06-14T07:42:51;9.90;;;5.20;;
58784;SDS011;44557;51.862;19.378;2023-06-14T07:44:56;9.70;;;5.20;;
58784;SDS011;44557;51.862;19.378;2023-06-14T07:46:58;10.20;;;5.30;;
58784;SDS011;44557;51.862;19.378;2023-06-14T07:49:01;9.40;;;5.80;;
58784;SDS011;44557;51.862;19.378;2023-06-14T07:51:04;8.30;;;5.20;;
58784;SDS011;44557;51.862;19.378;2023-06-14T07:53:06;12.20;;;5.10;;
58784;SDS011;44557;51.862;19.378;2023-06-14T07:55:08;9.80;;;5.40;;
58784;SDS011;44557;51.862;19.378;2023-06-14T07:57:11;10.80;;;5.10;;
58784;SDS011;44557;51.862;19.378;2023-06-14T07:59:12;9.20;;;5.00;;
58784;SDS011;44557;51.862;19.378;2023-06-14T08:01:15;8.90;;;5.70;;
58784;SDS011;44557;51.862;19.378;2023-06-14T08:03:18;9.20;;;5.40;;
58784;SDS011;44557;51.862;19.378;2023-06-14T08:05:21;9.30;;;4.80;;
58784;SDS011;44557;51.862;19.378;2023-06-14T08:07:22;7.80;;;4.90;;
58784;SDS011;44557;51.862;19.378;2023-06-14T08:09:24;10.00;;;5.10;;
58784;SDS011;44557;51.862;19.378;2023-06-14T08:11:26;10.00;;;4.90;;
58784;SDS011;44557;51.862;19.378;2023-06-14T08:13:29;8.50;;;5.00;;
58784;SDS011;44557;51.862;19.378;2023-06-14T08:15:31;8.00;;;5.10;;
58784;SDS011;44557;51.862;19.378;2023-06-14T08:17:34;10.30;;;4.90;;
58784;SDS011;44557;51.862;19.378;2023-06-14T08:19:38;7.50;;;4.90;;
58784;SDS011;44557;51.862;19.378;2023-06-14T08:21:40;7.00;;;5.00;;
58784;SDS011;44557;51.862;19.378;2023-06-14T08:23:42;8.70;;;5.10;;
58784;SDS011;44557;51.862;19.378;2023-06-14T08:25:48;10.00;;;4.90;;
58784;SDS011;44557;51.862;19.378;2023-06-14T08:27:50;9.10;;;5.10;;
58784;SDS011;44557;51.862;19.378;2023-06-14T08:29:53;9.10;;;4.70;;
58784;SDS011;44557;51.862;19.378;2023-06-14T08:31:55;8.00;;;5.70;;
58784;SDS011;44557;51.862;19.378;2023-06-14T08:33:57;10.30;;;5.00;;
58784;SDS011;44557;51.862;19.378;2023-06-14T08:35:59;8.80;;;5.20;;
58784;SDS011;44557;51.862;19.378;2023-06-14T08:38:01;8.00;;;5.30;;
58784;SDS011;44557;51.862;19.378;2023-06-14T08:40:03;8.60;;;5.30;;
58784;SDS011;44557;51.862;19.378;2023-06-14T08:42:07;8.90;;;5.50;;
58784;SDS011;44557;51.862;19.378;2023-06-14T08:44:11;8.10;;;4.70;;
58784;SDS011;44557;51.862;19.378;2023-06-14T08:46:13;10.80;;;5.10;;
58784;SDS011;44557;51.862;19.378;2023-06-14T08:48:21;10.00;;;6.10;;
58784;SDS011;44557;51.862;19.378;2023-06-14T08:50:27;8.50;;;4.80;;
58784;SDS011;44557;51.862;19.378;2023-06-14T08:52:33;7.80;;;5.20;;
58784;SDS011;44557;51.862;19.378;2023-06-14T08:54:51;8.40;;;4.80;;
58784;SDS011;44557;51.862;19.378;2023-06-14T08:56:54;9.70;;;5.10;;
58784;SDS011;44557;51.862;19.378;2023-06-14T08:58:59;10.50;;;5.30;;
58784;SDS011;44557;51.862;19.378;2023-06-14T09:01:05;9.20;;;5.30;;
58784;SDS011;44557;51.862;19.378;2023-06-14T09:03:08;7.90;;;5.20;;
58784;SDS011;44557;51.862;19.378;2023-06-14T09:05:15;9.90;;;5.30;;
58784;SDS011;44557;51.862;19.378;2023-06-14T09:07:20;12.70;;;5.00;;
58784;SDS011;44557;51.862;19.378;2023-06-14T09:09:22;9.40;;;5.10;;
58784;SDS011;44557;51.862;19.378;2023-06-14T09:11:25;9.00;;;4.80;;
58784;SDS011;44557;51.862;19.378;2023-06-14T09:13:48;8.40;;;5.40;;
58784;SDS011;44557;51.862;19.378;2023-06-14T09:15:51;8.70;;;5.60;;
58784;SDS011;44557;51.862;19.378;2023-06-14T09:17:53;11.20;;;5.70;;
58784;SDS011;44557;51.862;19.378;2023-06-14T09:19:56;8.30;;;5.60;;
58784;SDS011;44557;51.862;19.378;2023-06-14T09:21:59;11.60;;;6.10;;
58784;SDS011;44557;51.862;19.378;2023-06-14T09:24:02;11.30;;;5.90;;
58784;SDS011;44557;51.862;19.378;2023-06-14T09:26:07;9.50;;;5.90;;
58784;SDS011;44557;51.862;19.378;2023-06-14T09:28:10;9.00;;;5.40;;
58784;SDS011;44557;51.862;19.378;2023-06-14T09:30:12;14.20;;;6.00;;
58784;SDS011;44557;51.862;19.378;2023-06-14T09:32:14;10.30;;;5.50;;
58784;SDS011;44557;51.862;19.378;2023-06-14T09:34:16;9.20;;;5.70;;
58784;SDS011;44557;51.862;19.378;2023-06-14T09:36:21;8.20;;;5.20;;
58784;SDS011;44557;51.862;19.378;2023-06-14T09:38:25;7.20;;;5.60;;
58784;SDS011;44557;51.862;19.378;2023-06-14T09:40:28;8.10;;;4.60;;
58784;SDS011;44557;51.862;19.378;2023-06-14T09:42:29;8.50;;;5.50;;
58784;SDS011;44557;51.862;19.378;2023-06-14T09:44:32;10.40;;;5.30;;
58784;SDS011;44557;51.862;19.378;2023-06-14T09:46:35;11.40;;;4.90;;
58784;SDS011;44557;51.862;19.378;2023-06-14T09:48:38;7.50;;;4.80;;
58784;SDS011;44557;51.862;19.378;2023-06-14T09:50:47;8.70;;;5.60;;
58784;SDS011;44557;51.862;19.378;2023-06-14T09:52:52;7.80;;;5.30;;
58784;SDS011;44557;51.862;19.378;2023-06-14T09:54:58;8.90;;;5.50;;
58784;SDS011;44557;51.862;19.378;2023-06-14T09:57:01;8.80;;;5.10;;
58784;SDS011;44557;51.862;19.378;2023-06-14T09:59:05;9.80;;;5.60;;
58784;SDS011;44557;51.862;19.378;2023-06-14T10:01:10;9.30;;;5.40;;
58784;SDS011;44557;51.862;19.378;2023-06-14T10:03:18;11.90;;;5.50;;
58784;SDS011;44557;51.862;19.378;2023-06-14T10:05:25;7.60;;;5.40;;
58784;SDS011;44557;51.862;19.378;2023-06-14T10:07:30;9.40;;;4.50;;
58784;SDS011;44557;51.862;19.378;2023-06-14T10:09:54;8.00;;;4.60;;
58784;SDS011;44557;51.862;19.378;2023-06-14T10:11:56;8.90;;;4.80;;
58784;SDS011;44557;51.862;19.378;2023-06-14T10:13:59;11.30;;;5.60;;
58784;SDS011;44557;51.862;19.378;2023-06-14T10:16:23;9.60;;;5.40;;
58784;SDS011;44557;51.862;19.378;2023-06-14T10:18:45;7.60;;;5.30;;
58784;SDS011;44557;51.862;19.378;2023-06-14T10:21:04;11.90;;;5.40;;
58784;SDS011;44557;51.862;19.378;2023-06-14T10:23:31;10.20;;;5.50;;
58784;SDS011;44557;51.862;19.378;2023-06-14T10:25:37;7.70;;;5.10;;
58784;SDS011;44557;51.862;19.378;2023-06-14T10:27:39;8.60;;;5.10;;
58784;SDS011;44557;51.862;19.378;2023-06-14T10:31:57;10.20;;;4.80;;
58784;SDS011;44557;51.862;19.378;2023-06-14T10:33:59;10.00;;;5.00;;
58784;SDS011;44557;51.862;19.378;2023-06-14T10:36:09;10.10;;;4.90;;
58784;SDS011;44557;51.862;19.378;2023-06-14T10:38:12;10.20;;;5.10;;
58784;SDS011;44557;51.862;19.378;2023-06-14T10:40:29;9.30;;;5.00;;
58784;SDS011;44557;51.862;19.378;2023-06-14T10:42:32;10.90;;;4.70;;
58784;SDS011;44557;51.862;19.378;2023-06-14T10:44:39;8.90;;;5.50;;
58784;SDS011;44557;51.862;19.378;2023-06-14T10:46:47;9.30;;;5.00;;
58784;SDS011;44557;51.862;19.378;2023-06-14T10:48:57;8.40;;;5.10;;
58784;SDS011;44557;51.862;19.378;2023-06-14T10:51:01;9.00;;;5.20;;
58784;SDS011;44557;51.862;19.378;2023-06-14T10:53:21;10.60;;;5.40;;
58784;SDS011;44557;51.862;19.378;2023-06-14T10:55:26;8.90;;;4.90;;
58784;SDS011;44557;51.862;19.378;2023-06-14T10:57:37;8.50;;;5.30;;
58784;SDS011;44557;51.862;19.378;2023-06-14T10:59:40;7.90;;;5.10;;
58784;SDS011;44557;51.862;19.378;2023-06-14T11:04:13;6.70;;;4.60;;
58784;SDS011;44557;51.862;19.378;2023-06-14T11:06:15;7.30;;;4.80;;
58784;SDS011;44557;51.862;19.378;2023-06-14T11:10:41;9.10;;;5.00;;
58784;SDS011;44557;51.862;19.378;2023-06-14T11:12:47;8.30;;;5.40;;
58784;SDS011;44557;51.862;19.378;2023-06-14T11:14:50;12.30;;;6.30;;
58784;SDS011;44557;51.862;19.378;2023-06-14T11:16:52;10.70;;;5.80;;
58784;SDS011;44557;51.862;19.378;2023-06-14T11:18:54;11.50;;;5.90;;
58784;SDS011;44557;51.862;19.378;2023-06-14T11:20:57;7.90;;;5.40;;
58784;SDS011;44557;51.862;19.378;2023-06-14T11:22:59;9.60;;;5.60;;
58784;SDS011;44557;51.862;19.378;2023-06-14T11:25:01;9.20;;;5.30;;
58784;SDS011;44557;51.862;19.378;2023-06-14T11:27:05;11.70;;;5.50;;
58784;SDS011;44557;51.862;19.378;2023-06-14T11:29:07;9.10;;;5.30;;
58784;SDS011;44557;51.862;19.378;2023-06-14T11:31:10;8.50;;;4.80;;
58784;SDS011;44557;51.862;19.378;2023-06-14T11:33:16;9.70;;;5.90;;
58784;SDS011;44557;51.862;19.378;2023-06-14T11:35:22;7.90;;;5.20;;
58784;SDS011;44557;51.862;19.378;2023-06-14T11:37:28;9.70;;;5.70;;
58784;SDS011;44557;51.862;19.378;2023-06-14T11:39:34;9.90;;;5.90;;
58784;SDS011;44557;51.862;19.378;2023-06-14T11:41:43;6.90;;;5.10;;
58784;SDS011;44557;51.862;19.378;2023-06-14T11:43:48;8.20;;;4.90;;
58784;SDS011;44557;51.862;19.378;2023-06-14T11:45:54;8.20;;;4.70;;
58784;SDS011;44557;51.862;19.378;2023-06-14T11:47:58;8.50;;;4.90;;
58784;SDS011;44557;51.862;19.378;2023-06-14T11:50:02;11.20;;;4.70;;
58784;SDS011;44557;51.862;19.378;2023-06-14T11:52:05;10.30;;;4.70;;
58784;SDS011;44557;51.862;19.378;2023-06-14T11:54:08;7.40;;;4.40;;
58784;SDS011;44557;51.862;19.378;2023-06-14T11:56:10;9.50;;;4.60;;
58784;SDS011;44557;51.862;19.378;2023-06-14T11:58:12;9.70;;;4.70;;
58784;SDS011;44557;51.862;19.378;2023-06-14T12:00:15;8.40;;;4.70;;
58784;SDS011;44557;51.862;19.378;2023-06-14T12:02:18;7.50;;;4.70;;
58784;SDS011;44557;51.862;19.378;2023-06-14T12:04:24;8.60;;;5.00;;
58784;SDS011;44557;51.862;19.378;2023-06-14T12:06:29;7.10;;;4.20;;
58784;SDS011;44557;51.862;19.378;2023-06-14T12:08:38;7.80;;;4.40;;
58784;SDS011;44557;51.862;19.378;2023-06-14T12:10:41;9.40;;;4.30;;
58784;SDS011;44557;51.862;19.378;2023-06-14T12:12:45;7.00;;;3.90;;
58784;SDS011;44557;51.862;19.378;2023-06-14T12:14:47;8.60;;;4.70;;
58784;SDS011;44557;51.862;19.378;2023-06-14T12:17:03;7.70;;;4.60;;
58784;SDS011;44557;51.862;19.378;2023-06-14T12:19:11;10.30;;;4.60;;